Time;durP1;ratioP1;P1;durP2;ratioP2;P2;SDS_P1;SDS_P2;PMS_P1;PMS_P2;Temp;Humidity;BMP_temperature;BMP_pressure;BME280_temperature;BME280_humidity;BME280_pressure;Samples;Min_cycle;Max_cycle;Signal;HPM_P1;HPM_P2
2022/12/10 00:04:51;;;;;;;15.82;7.85;;;16.90;54.50;;;;;;10450863;28;20586;-31
2022/12/10 00:09:53;;;;;;;16.40;8.23;;;16.90;54.50;;;;;;10449500;28;20041;-30
2022/12/10 00:14:55;;;;;;;19.47;10.63;;;16.90;54.50;;;;;;10451782;28;20048;-32
2022/12/10 00:19:58;;;;;;;21.10;12.17;;;16.80;54.50;;;;;;10454931;28;20615;-36
2022/12/10 00:25:00;;;;;;;17.95;9.45;;;16.80;54.40;;;;;;10439396;28;20600;-33
2022/12/10 00:30:03;;;;;;;13.55;8.00;;;16.70;54.70;;;;;;10443894;28;20086;-30
2022/12/10 00:35:07;;;;;;;28.80;14.05;;;16.60;54.80;;;;;;10447169;28;20051;-33
2022/12/10 00:40:10;;;;;;;14.70;7.85;;;16.20;53.20;;;;;;10452811;28;20076;-30
2022/12/10 00:45:12;;;;;;;12.00;6.95;;;16.50;54.70;;;;;;10437226;28;20070;-31
2022/12/10 00:50:16;;;;;;;13.83;7.83;;;16.10;56.00;;;;;;10446533;28;20118;-32
2022/12/10 00:55:18;;;;;;;16.17;9.88;;;16.10;55.00;;;;;;10446218;28;20056;-32
2022/12/10 01:00:20;;;;;;;12.03;7.47;;;15.50;56.90;;;;;;10460316;28;20479;-33
2022/12/10 01:05:23;;;;;;;9.60;5.90;;;16.20;55.30;;;;;;10453536;28;20045;-32
2022/12/10 01:10:25;;;;;;;11.07;6.68;;;16.60;54.30;;;;;;10454607;28;20045;-28
2022/12/10 01:15:27;;;;;;;14.60;7.00;;;16.60;54.40;;;;;;10452931;28;20049;-31
2022/12/10 01:20:30;;;;;;;13.23;7.50;;;16.60;54.40;;;;;;10456385;28;20483;-36
2022/12/10 01:25:32;;;;;;;11.38;6.47;;;16.50;54.50;;;;;;10449843;28;20049;-32
2022/12/10 01:30:34;;;;;;;14.93;9.87;;;16.30;54.80;;;;;;10444231;28;20041;-34
2022/12/10 01:35:38;;;;;;;14.27;8.07;;;16.10;55.60;;;;;;10452786;28;20060;-32
2022/12/10 01:40:40;;;;;;;14.60;8.65;;;16.50;54.50;;;;;;10445499;28;20486;-32
2022/12/10 01:45:42;;;;;;;12.53;7.03;;;16.50;54.20;;;;;;10449074;28;20049;-33
2022/12/10 01:50:45;;;;;;;15.63;8.60;;;16.50;54.40;;;;;;10450115;28;20549;-37
2022/12/10 01:55:49;;;;;;;12.70;7.25;;;16.50;54.30;;;;;;10447507;28;20056;-37
2022/12/10 02:01:01;;;;;;;12.35;7.13;;;16.50;54.40;;;;;;10451437;28;20052;-32
2022/12/10 02:06:15;;;;;;;28.60;15.43;;;16.50;54.30;;;;;;10452902;28;20037;-32
2022/12/10 02:11:21;;;;;;;11.50;7.03;;;16.00;52.50;;;;;;10440504;28;20068;-33
2022/12/10 02:16:34;;;;;;;10.35;6.85;;;16.20;54.80;;;;;;10448059;28;20780;-33
2022/12/10 02:21:40;;;;;;;11.35;6.85;;;16.40;54.50;;;;;;10448873;28;20133;-31
2022/12/10 02:26:47;;;;;;;12.20;7.28;;;16.40;54.20;;;;;;10447387;28;20052;-32
2022/12/10 02:31:54;;;;;;;14.25;8.48;;;16.50;54.10;;;;;;10447410;28;20052;-33
2022/12/10 02:36:58;;;;;;;12.02;7.15;;;16.50;54.10;;;;;;10451265;28;20496;-29
2022/12/10 02:42:02;;;;;;;15.60;9.13;;;16.40;54.20;;;;;;10444529;28;20148;-32
2022/12/10 02:47:07;;;;;;;13.57;7.18;;;16.40;54.10;;;;;;10454075;28;20041;-33
2022/12/10 02:52:12;;;;;;;11.43;6.38;;;16.50;53.90;;;;;;10444779;28;20067;-32
2022/12/10 02:57:36;;;;;;;10.07;6.80;;;16.40;54.10;;;;;;10448071;28;20511;-32
2022/12/10 03:02:49;;;;;;;12.55;7.43;;;16.30;54.20;;;;;;10449506;28;20045;-32
2022/12/10 03:07:59;;;;;;;12.35;6.47;;;16.40;53.90;;;;;;10447144;28;20060;-32
2022/12/10 03:13:07;;;;;;;13.95;7.15;;;16.40;54.00;;;;;;10444423;28;20057;-33
2022/12/10 03:18:12;;;;;;;13.65;6.68;;;16.30;54.10;;;;;;10442183;28;20059;-32
2022/12/10 03:23:19;;;;;;;11.75;6.97;;;16.30;54.00;;;;;;10450570;28;20064;-31
2022/12/10 03:28:23;;;;;;;11.52;7.57;;;16.10;54.50;;;;;;10449358;28;20060;-33
2022/12/10 03:33:26;;;;;;;15.82;8.27;;;16.20;54.40;;;;;;10452862;28;20044;-37
2022/12/10 03:38:28;;;;;;;21.73;11.05;;;15.40;55.60;;;;;;10460379;28;20049;-32
2022/12/10 03:43:30;;;;;;;28.47;14.63;;;14.50;57.90;;;;;;10459922;28;20679;-34
2022/12/10 03:48:34;;;;;;;15.73;7.95;;;15.00;53.90;;;;;;10455804;28;20049;-31
2022/12/10 03:53:36;;;;;;;11.60;6.95;;;15.50;55.90;;;;;;10455959;28;20482;-36
2022/12/10 03:58:38;;;;;;;12.23;6.97;;;15.70;55.20;;;;;;10451255;28;20122;-38
2022/12/10 04:03:42;;;;;;;10.27;6.38;;;15.60;55.50;;;;;;10456444;28;20476;-33
2022/12/10 04:08:45;;;;;;;11.93;7.40;;;16.20;54.80;;;;;;10459392;28;20549;-33
2022/12/10 04:19:09;;;;;;;10.52;6.82;;;15.80;52.20;;;;;;10456463;28;20052;-32
2022/12/10 04:29:32;;;;;;;11.77;6.32;;;16.20;53.80;;;;;;10443174;28;20053;-32
2022/12/10 04:34:35;;;;;;;10.32;6.28;;;16.00;54.80;;;;;;10455103;28;20045;-32
2022/12/10 04:39:38;;;;;;;9.45;5.85;;;16.20;53.80;;;;;;10475176;28;20056;-35
2022/12/10 04:44:39;;;;;;;11.95;6.82;;;16.10;54.60;;;;;;10455617;28;20052;-31
2022/12/10 04:49:43;;;;;;;11.20;6.63;;;16.20;53.80;;;;;;10451902;28;20094;-29
2022/12/10 04:54:45;;;;;;;9.80;5.72;;;16.20;53.80;;;;;;10460357;28;20588;-32
2022/12/10 04:59:47;;;;;;;10.18;6.25;;;16.20;53.90;;;;;;10463422;28;20071;-31
2022/12/10 05:04:50;;;;;;;10.00;6.03;;;16.10;53.70;;;;;;10454706;28;20437;-29
2022/12/10 05:09:52;;;;;;;8.70;5.75;;;16.20;53.70;;;;;;10450418;28;20131;-32
2022/12/10 05:14:54;;;;;;;9.40;5.47;;;16.20;53.60;;;;;;10451578;28;20111;-30
2022/12/10 05:19:57;;;;;;;8.33;4.90;;;16.30;53.40;;;;;;10453868;28;20456;-32
2022/12/10 05:24:59;;;;;;;8.55;4.55;;;16.30;53.60;;;;;;10452941;28;20068;-38
2022/12/10 05:30:01;;;;;;;9.07;4.97;;;16.50;53.30;;;;;;10452713;28;20060;-36
2022/12/10 05:35:05;;;;;;;7.10;4.77;;;16.70;52.90;;;;;;10451665;28;20068;-33
2022/12/10 05:40:08;;;;;;;7.30;4.78;;;17.00;52.60;;;;;;10455289;28;20041;-33
2022/12/10 05:45:10;;;;;;;8.57;4.72;;;17.10;52.60;;;;;;10446475;28;20090;-32
2022/12/10 05:50:14;;;;;;;6.82;3.95;;;17.20;52.50;;;;;;10446004;28;20045;-31
2022/12/10 05:55:16;;;;;;;6.30;4.20;;;17.30;52.50;;;;;;10447908;28;20057;-31
2022/12/10 06:00:18;;;;;;;7.57;3.67;;;17.40;52.40;;;;;;10453826;28;20124;-36
2022/12/10 06:05:21;;;;;;;6.15;4.03;;;17.40;52.40;;;;;;10445203;28;20052;-32
2022/12/10 06:10:23;;;;;;;6.07;3.90;;;17.50;52.40;;;;;;10450382;28;20143;-33
2022/12/10 06:15:25;;;;;;;7.63;4.70;;;17.50;52.40;;;;;;10449325;28;20147;-32
2022/12/10 06:20:28;;;;;;;9.37;5.03;;;17.50;52.50;;;;;;10454633;28;20362;-37
2022/12/10 06:25:30;;;;;;;6.03;3.67;;;17.60;52.40;;;;;;10452318;28;20479;-33
2022/12/10 06:30:32;;;;;;;4.88;2.95;;;17.60;52.40;;;;;;10465262;28;20045;-33
2022/12/10 06:35:35;;;;;;;4.47;3.17;;;17.60;52.50;;;;;;10446837;28;20053;-31
2022/12/10 06:40:40;;;;;;;4.47;3.25;;;17.50;52.40;;;;;;10449923;28;20107;-33
2022/12/10 06:45:43;;;;;;;3.88;2.60;;;17.50;52.60;;;;;;10454503;28;20087;-32
2022/12/10 06:50:46;;;;;;;4.50;2.80;;;17.50;52.60;;;;;;10440169;28;20128;-32
2022/12/10 06:55:48;;;;;;;4.40;3.10;;;17.50;52.60;;;;;;10447301;28;20076;-33
2022/12/10 07:00:50;;;;;;;4.25;2.95;;;17.40;52.70;;;;;;10453856;28;20044;-30
2022/12/10 07:15:28;;;;;;;5.97;3.28;;;17.40;52.20;;;;;;10446698;27;2097651;-31
2022/12/10 07:20:31;;;;;;;2.55;2.15;;;17.40;52.80;;;;;;10513397;28;20481;-32
2022/12/10 07:25:33;;;;;;;4.22;2.75;;;17.40;53.20;;;;;;10511862;28;20044;-32
2022/12/10 07:30:36;;;;;;;3.53;2.63;;;17.40;52.60;;;;;;10514461;28;20084;-35
2022/12/10 07:35:39;;;;;;;3.22;2.80;;;17.40;52.60;;;;;;10515291;28;20114;-33
2022/12/10 07:40:41;;;;;;;3.75;2.42;;;17.40;52.70;;;;;;10518195;28;20430;-31
2022/12/10 07:45:44;;;;;;;4.60;2.70;;;17.30;52.70;;;;;;10518934;28;20127;-34
2022/12/10 07:50:46;;;;;;;3.45;2.50;;;17.30;52.80;;;;;;10519603;28;20147;-32
2022/12/10 07:55:48;;;;;;;6.67;3.30;;;17.30;52.70;;;;;;10520094;28;20052;-34
2022/12/10 08:00:51;;;;;;;4.30;2.57;;;17.20;52.80;;;;;;10519252;28;20084;-35
2022/12/10 08:06:02;;;;;;;3.70;2.97;;;17.30;52.80;;;;;;10522982;28;20127;-32
2022/12/10 08:11:05;;;;;;;4.03;2.70;;;17.30;52.70;;;;;;10518898;28;20045;-33
2022/12/10 08:16:12;;;;;;;3.92;2.53;;;17.40;52.60;;;;;;10508607;28;20045;-32
2022/12/10 08:21:16;;;;;;;4.72;3.17;;;17.40;52.80;;;;;;10517875;28;20145;-32
2022/12/10 08:26:20;;;;;;;2.60;2.40;;;17.30;52.80;;;;;;10489337;28;20041;-32
2022/12/10 08:31:24;;;;;;;4.68;2.60;;;17.20;52.80;;;;;;10481937;28;20087;-33
2022/12/10 08:36:26;;;;;;;2.83;2.30;;;17.20;53.00;;;;;;10484273;28;20471;-33
2022/12/10 08:41:28;;;;;;;5.17;3.53;;;17.20;53.10;;;;;;10485560;28;20053;-35
2022/12/10 08:46:32;;;;;;;5.27;3.13;;;17.10;53.20;;;;;;10488717;28;20106;-34
2022/12/10 08:51:34;;;;;;;5.80;2.80;;;17.10;53.20;;;;;;10489122;28;20563;-32
2022/12/10 08:56:36;;;;;;;4.68;3.10;;;17.10;53.40;;;;;;10490578;28;20052;-38
2022/12/10 09:01:39;;;;;;;19.40;11.02;;;17.10;53.60;;;;;;10475281;28;20413;-32
2022/12/10 09:06:41;;;;;;;25.08;15.10;;;16.90;54.10;;;;;;10478235;28;20072;-33
2022/12/10 09:11:46;;;;;;;25.77;13.70;;;16.90;54.00;;;;;;10481595;28;20140;-31
2022/12/10 09:16:49;;;;;;;6.03;3.72;;;17.10;53.60;;;;;;10482732;28;20151;-32
2022/12/10 09:21:51;;;;;;;6.10;3.50;;;17.20;53.40;;;;;;10483528;28;20048;-32
2022/12/10 09:26:53;;;;;;;5.70;3.57;;;17.20;53.40;;;;;;10479945;28;20102;-31
2022/12/10 09:31:56;;;;;;;6.47;3.47;;;17.30;53.30;;;;;;10484855;28;20602;-31
2022/12/10 09:36:58;;;;;;;3.55;3.00;;;17.60;53.00;;;;;;10487773;28;20521;-34
2022/12/10 09:42:12;;;;;;;6.00;2.92;;;17.70;53.00;;;;;;10478052;28;20075;-35
2022/12/10 09:47:16;;;;;;;6.03;2.97;;;17.70;53.00;;;;;;10482142;28;20079;-34
2022/12/10 09:52:21;;;;;;;6.82;3.60;;;17.70;53.10;;;;;;10482631;28;20044;-35
2022/12/10 09:57:30;;;;;;;5.15;3.00;;;17.70;53.40;;;;;;10476085;28;20730;-32
2022/12/10 10:02:33;;;;;;;7.40;3.67;;;17.60;53.50;;;;;;10485490;28;20053;-33
2022/12/10 10:07:38;;;;;;;3.80;2.85;;;17.50;53.70;;;;;;10485462;28;20540;-32
2022/12/10 10:12:41;;;;;;;5.43;3.08;;;17.50;53.60;;;;;;10478841;28;20495;-32
2022/12/10 10:17:46;;;;;;;;;;;17.60;53.50;;;;;;10482720;28;20079;-31
2022/12/10 10:22:48;;;;;;;6.57;3.47;;;17.50;53.90;;;;;;10473422;28;19931;-34
2022/12/10 10:27:50;;;;;;;4.78;3.40;;;17.70;53.80;;;;;;10484596;28;20045;-33
2022/12/10 10:32:56;;;;;;;8.10;3.70;;;17.70;54.00;;;;;;10476164;28;20052;-35
2022/12/10 10:38:00;;;;;;;9.43;5.18;;;17.60;54.10;;;;;;10482347;28;20088;-34
2022/12/10 10:43:02;;;;;;;12.90;4.45;;;17.60;54.80;;;;;;10479367;28;20071;-32
2022/12/10 10:48:07;;;;;;;;;;;17.70;55.00;;;;;;10477413;28;20078;-33
2022/12/10 10:53:28;;;;;;;10.95;6.20;;;17.70;54.90;;;;;;10487236;28;20361;-33
2022/12/10 10:58:30;;;;;;;8.60;5.13;;;17.60;54.90;;;;;;10468667;28;20049;-34
2022/12/10 11:03:36;;;;;;;9.57;5.93;;;17.70;54.80;;;;;;10473333;28;20099;-32
2022/12/10 11:08:39;;;;;;;12.23;5.07;;;17.50;55.10;;;;;;10471248;28;20040;-29
2022/12/10 11:13:41;;;;;;;14.63;7.70;;;17.60;55.10;;;;;;10480547;28;20398;-35
2022/12/10 11:18:54;;;;;;;12.52;5.70;;;17.50;54.70;;;;;;10477843;28;20048;-34
2022/12/10 11:23:57;;;;;;;10.20;4.95;;;17.60;55.00;;;;;;10477261;28;20064;-34
2022/12/10 11:29:12;;;;;;;10.88;5.32;;;17.60;54.90;;;;;;10480685;28;20068;-32
2022/12/10 11:34:21;;;;;;;10.55;5.13;;;17.60;55.00;;;;;;10482405;28;20512;-35
2022/12/10 11:39:45;;;;;;;16.38;7.63;;;17.50;55.00;;;;;;10487802;28;20114;-31
2022/12/10 11:44:55;;;;;;;19.35;8.85;;;17.40;55.10;;;;;;10475340;28;20136;-35
2022/12/10 11:50:13;;;;;;;19.35;9.40;;;16.70;56.50;;;;;;10473029;28;20163;-38
2022/12/10 11:55:26;;;;;;;18.63;9.68;;;17.20;55.70;;;;;;10478226;28;20080;-32
2022/12/10 12:00:38;;;;;;;22.88;11.02;;;17.30;55.40;;;;;;10483748;28;20053;-35
2022/12/10 12:05:55;;;;;;;23.10;10.82;;;17.30;55.30;;;;;;10488786;28;20056;-35
2022/12/10 12:11:15;;;;;;;23.23;11.38;;;17.30;55.40;;;;;;10486685;28;20084;-35
2022/12/10 12:16:22;;;;;;;25.83;12.30;;;17.40;55.40;;;;;;10487483;28;20055;-32
2022/12/10 12:21:26;;;;;;;29.02;12.23;;;17.30;55.40;;;;;;10467278;28;20818;-35
2022/12/10 12:26:32;;;;;;;25.40;11.88;;;17.20;55.60;;;;;;10485575;28;20129;-35
2022/12/10 12:31:37;;;;;;;26.67;12.57;;;17.30;55.40;;;;;;10483264;28;20131;-32
2022/12/10 12:36:40;;;;;;;26.63;12.45;;;17.30;55.40;;;;;;10480762;28;20083;-35
2022/12/10 12:41:49;;;;;;;26.38;13.05;;;17.30;55.40;;;;;;10479498;28;20143;-34
2022/12/10 12:46:52;;;;;;;30.00;17.25;;;17.10;55.80;;;;;;10466885;28;20044;-34
2022/12/10 12:52:02;;;;;;;29.83;14.23;;;14.40;52.90;;;;;;10483431;28;20056;-34
2022/12/10 12:57:09;;;;;;;31.83;14.05;;;15.90;57.80;;;;;;10488918;28;20124;-38
2022/12/10 13:02:23;;;;;;;37.28;18.35;;;13.60;65.80;;;;;;10489654;28;20056;-30
2022/12/10 13:07:35;;;;;;;23.95;12.50;;;11.80;71.90;;;;;;10468798;28;20053;-38
2022/12/10 13:12:47;;;;;;;22.80;10.73;;;12.80;76.80;;;;;;10480787;28;20497;-32
2022/12/10 13:18:22;;;;;;;24.92;12.63;;;16.10;60.40;;;;;;10477407;28;20098;-34
2022/12/10 13:23:35;;;;;;;21.60;10.63;;;15.80;58.70;;;;;;10477825;28;20041;-34
2022/12/10 13:28:51;;;;;;;19.20;9.00;;;16.20;60.00;;;;;;10475292;28;20056;-31
2022/12/10 13:34:07;;;;;;;18.40;8.70;;;16.80;58.30;;;;;;10486975;28;20842;-29
2022/12/10 13:39:22;;;;;;;17.33;7.05;;;17.20;57.20;;;;;;10476450;28;20071;-31
2022/12/10 13:44:37;;;;;;;17.15;7.18;;;17.30;56.80;;;;;;10476479;28;20068;-33
2022/12/10 13:49:50;;;;;;;16.80;6.78;;;17.40;56.60;;;;;;10484338;28;20048;-34
2022/12/10 13:55:16;;;;;;;13.48;6.47;;;17.40;56.60;;;;;;10473770;28;20044;-32
2022/12/10 14:00:22;;;;;;;16.10;7.63;;;17.50;56.40;;;;;;10465507;28;20527;-35
2022/12/10 14:05:36;;;;;;;13.68;6.90;;;17.40;56.40;;;;;;10480250;28;20050;-31
2022/12/10 14:10:41;;;;;;;16.25;7.53;;;17.40;56.50;;;;;;10472478;28;20485;-34
2022/12/10 14:15:52;;;;;;;11.55;6.35;;;17.50;56.20;;;;;;10475480;28;20746;-31
2022/12/10 14:20:55;;;;;;;17.40;8.63;;;17.50;56.10;;;;;;10476319;28;20049;-36
2022/12/10 14:25:59;;;;;;;11.98;7.20;;;17.50;56.10;;;;;;10474824;28;20098;-31
2022/12/10 14:31:02;;;;;;;15.40;6.18;;;17.50;56.10;;;;;;10483666;28;20052;-32
2022/12/10 14:36:04;;;;;;;11.35;6.25;;;17.60;56.00;;;;;;10478421;28;20394;-38
2022/12/10 14:41:08;;;;;;;19.17;6.60;;;17.50;56.00;;;;;;10477848;28;20049;-33
2022/12/10 14:46:17;;;;;;;10.20;5.68;;;17.60;55.90;;;;;;10478015;28;20044;-33
2022/12/10 14:51:21;;;;;;;10.80;5.82;;;17.60;55.90;;;;;;10468075;28;20044;-33
2022/12/10 14:56:30;;;;;;;13.13;6.85;;;17.60;56.00;;;;;;10471652;28;20048;-31
2022/12/10 15:01:35;;;;;;;11.23;6.25;;;17.50;55.90;;;;;;10478279;28;20044;-32
2022/12/10 15:06:37;;;;;;;10.40;5.28;;;17.60;56.00;;;;;;10481227;28;20048;-37
2022/12/10 15:11:41;;;;;;;12.63;6.18;;;17.60;56.10;;;;;;10478695;28;20056;-32
2022/12/10 15:16:44;;;;;;;9.52;5.78;;;17.60;56.10;;;;;;10479053;28;20493;-36
2022/12/10 15:21:48;;;;;;;10.82;5.88;;;17.50;56.20;;;;;;10478715;28;20535;-30
2022/12/10 15:26:52;;;;;;;14.35;6.57;;;17.50;56.20;;;;;;10476367;28;20045;-32
2022/12/10 15:31:57;;;;;;;10.88;5.45;;;17.50;56.30;;;;;;10479047;28;20486;-32
2022/12/10 15:37:03;;;;;;;13.73;6.13;;;16.80;54.20;;;;;;10491948;28;20102;-31
2022/12/10 15:42:08;;;;;;;19.13;9.52;;;15.20;60.60;;;;;;10490829;28;20520;-35
2022/12/10 15:47:15;;;;;;;20.52;10.13;;;16.40;59.70;;;;;;10487731;28;20469;-33
2022/12/10 15:52:19;;;;;;;16.85;9.32;;;16.10;55.30;;;;;;10481334;28;20048;-31
2022/12/10 15:57:25;;;;;;;26.00;9.85;;;17.60;58.10;;;;;;10487973;28;20607;-27
2022/12/10 16:02:34;;;;;;;21.30;7.97;;;17.40;61.70;;;;;;10480347;28;20062;-28
2022/12/10 16:07:36;;;;;;;8.57;5.00;;;18.00;58.30;;;;;;10477227;28;20120;-25
2022/12/10 16:12:41;;;;;;;146.13;11.60;;;18.90;58.00;;;;;;10482523;28;20103;-28
2022/12/10 16:17:42;;;;;;;45.15;7.32;;;19.40;60.60;;;;;;10488592;28;20080;-29
2022/12/10 16:22:44;;;;;;;48.08;7.63;;;18.60;55.80;;;;;;10477596;28;20061;-28
2022/12/10 16:27:48;;;;;;;18.48;5.35;;;18.30;56.30;;;;;;10488673;28;20137;-31
2022/12/10 16:32:50;;;;;;;19.27;5.32;;;18.10;56.70;;;;;;10473243;28;20045;-30
2022/12/10 16:37:54;;;;;;;16.95;4.45;;;18.00;57.00;;;;;;10461519;28;20202;-27
2022/12/10 16:42:57;;;;;;;22.85;4.28;;;17.90;57.40;;;;;;10480196;28;20068;-33
2022/12/10 16:47:59;;;;;;;12.02;4.70;;;17.90;57.60;;;;;;10480148;28;20485;-29
2022/12/10 16:53:04;;;;;;;8.35;3.33;;;17.80;57.60;;;;;;10471002;28;20049;-29
2022/12/10 16:58:10;;;;;;;7.97;4.25;;;17.80;57.80;;;;;;10489778;28;20056;-30
2022/12/10 17:03:21;;;;;;;6.57;3.65;;;17.80;57.80;;;;;;10475494;28;20140;-30
2022/12/10 17:08:24;;;;;;;6.75;3.38;;;17.80;57.90;;;;;;10476280;28;20040;-28
2022/12/10 17:13:28;;;;;;;13.55;7.78;;;17.80;57.80;;;;;;10466101;28;20066;-31
2022/12/10 17:18:32;;;;;;;16.08;9.10;;;17.60;57.90;;;;;;10473402;28;20048;-30
2022/12/10 17:23:34;;;;;;;17.95;9.20;;;17.50;58.10;;;;;;10479118;28;20048;-27
2022/12/10 17:28:37;;;;;;;20.45;10.65;;;17.50;57.80;;;;;;10481773;28;20477;-29
2022/12/10 17:33:39;;;;;;;16.63;9.35;;;17.50;58.40;;;;;;10487678;28;20716;-33
2022/12/10 17:38:42;;;;;;;16.08;9.32;;;17.50;57.70;;;;;;10469604;28;20456;-35
2022/12/10 17:43:47;;;;;;;15.25;8.43;;;17.50;57.70;;;;;;10478942;28;20455;-30
2022/12/10 17:48:49;;;;;;;15.63;8.25;;;17.40;57.50;;;;;;10478140;28;20048;-28
2022/12/10 17:53:51;;;;;;;7.47;3.58;;;17.50;57.50;;;;;;10482103;28;20473;-27
2022/12/10 17:58:55;;;;;;;6.75;3.10;;;17.70;57.10;;;;;;10474671;28;20587;-27
2022/12/10 18:03:57;;;;;;;8.95;5.47;;;17.70;57.00;;;;;;10469624;28;20048;-28
2022/12/10 18:09:01;;;;;;;3.80;2.70;;;17.70;56.90;;;;;;10476603;28;20056;-29
2022/12/10 18:14:05;;;;;;;5.30;2.58;;;17.70;57.50;;;;;;10476223;28;20378;-29
2022/12/10 18:19:14;;;;;;;6.32;2.65;;;17.80;57.10;;;;;;10475362;28;20134;-27
2022/12/10 18:24:15;;;;;;;116.53;73.55;;;17.60;57.70;;;;;;10478490;28;20052;-28
2022/12/10 18:29:18;;;;;;;140.88;93.35;;;17.50;57.90;;;;;;10475900;28;20707;-27
2022/12/10 18:34:20;;;;;;;142.05;95.65;;;17.50;58.20;;;;;;10481860;28;20052;-29
2022/12/10 18:39:25;;;;;;;130.30;86.55;;;17.30;58.50;;;;;;10471326;28;20131;-29
2022/12/10 18:44:29;;;;;;;169.00;114.45;;;17.20;58.80;;;;;;10481545;28;20048;-28
2022/12/10 18:49:31;;;;;;;197.60;131.13;;;17.20;58.80;;;;;;10472600;28;20048;-29
2022/12/10 18:54:33;;;;;;;163.13;115.50;;;17.20;58.70;;;;;;10467567;28;20067;-27
2022/12/10 18:59:36;;;;;;;189.10;128.38;;;17.20;58.70;;;;;;10470689;28;20048;-29
2022/12/10 19:04:38;;;;;;;196.55;142.10;;;17.20;58.90;;;;;;10479601;28;20052;-29
2022/12/10 19:09:41;;;;;;;195.05;139.57;;;17.10;59.00;;;;;;10473398;28;20729;-27
2022/12/10 19:14:44;;;;;;;222.40;143.63;;;17.20;58.80;;;;;;10478327;28;20562;-29
2022/12/10 19:19:46;;;;;;;184.90;119.82;;;17.20;58.90;;;;;;10483067;28;20109;-27
2022/12/10 19:24:48;;;;;;;79.20;43.43;;;17.30;58.60;;;;;;10475496;28;20161;-29
2022/12/10 19:29:51;;;;;;;54.80;24.43;;;17.50;58.30;;;;;;10479086;28;21426;-28
2022/12/10 19:34:53;;;;;;;44.70;21.27;;;17.50;58.20;;;;;;10469617;28;20080;-27
2022/12/10 19:39:55;;;;;;;49.35;24.88;;;17.60;58.20;;;;;;10474204;28;20052;-29
2022/12/10 19:44:59;;;;;;;41.63;19.65;;;17.60;58.20;;;;;;10464639;28;20095;-29
2022/12/10 19:50:01;;;;;;;53.05;27.08;;;17.70;58.10;;;;;;10466987;28;20103;-32
2022/12/10 19:55:03;;;;;;;30.25;14.80;;;17.60;58.10;;;;;;10474350;28;20057;-37
2022/12/10 20:00:12;;;;;;;26.95;12.68;;;17.70;58.10;;;;;;10480596;28;20052;-27
2022/12/10 20:05:14;;;;;;;24.48;11.80;;;17.60;58.00;;;;;;10466970;28;20049;-27
2022/12/10 20:10:19;;;;;;;;;;;17.60;58.30;;;;;;10481030;28;20044;-29
2022/12/10 20:15:24;;;;;;;22.23;12.32;;;17.60;58.00;;;;;;10466969;28;20110;-30
2022/12/10 20:20:28;;;;;;;21.48;12.35;;;17.50;58.50;;;;;;10474549;28;20049;-29
2022/12/10 20:25:30;;;;;;;28.70;14.05;;;17.20;59.20;;;;;;10480726;28;20068;-29
2022/12/10 20:30:33;;;;;;;24.60;13.55;;;16.90;59.40;;;;;;10479030;28;20496;-26
2022/12/10 20:35:35;;;;;;;16.88;10.25;;;17.60;58.20;;;;;;10485066;28;20076;-30
2022/12/10 20:40:37;;;;;;;19.80;9.65;;;17.70;57.60;;;;;;10479999;28;20658;-32
2022/12/10 20:45:41;;;;;;;18.88;8.93;;;17.40;58.00;;;;;;10476152;28;20400;-28
2022/12/10 20:50:43;;;;;;;22.65;10.70;;;17.10;59.00;;;;;;10474631;28;20067;-28
2022/12/10 20:55:45;;;;;;;19.20;8.88;;;17.40;58.00;;;;;;10485281;28;20059;-26
2022/12/10 21:00:48;;;;;;;14.57;7.72;;;17.50;57.60;;;;;;10473178;28;20044;-31
2022/12/10 21:05:50;;;;;;;21.50;10.55;;;17.60;57.10;;;;;;10483119;28;20162;-30
2022/12/10 21:10:55;;;;;;;18.05;9.68;;;16.90;59.20;;;;;;10467352;28;20501;-28
2022/12/10 21:16:01;;;;;;;32.47;18.75;;;17.50;57.20;;;;;;10472210;28;20048;-28
2022/12/10 21:21:03;;;;;;;15.80;8.98;;;17.40;57.50;;;;;;10469960;28;20075;-28
2022/12/10 21:26:05;;;;;;;17.75;7.90;;;17.70;56.70;;;;;;10487417;28;20053;-27
2022/12/10 21:31:14;;;;;;;10.65;6.55;;;17.70;56.50;;;;;;10480046;28;20102;-27
2022/12/10 21:36:18;;;;;;;11.75;8.15;;;17.80;56.30;;;;;;10470052;28;20148;-28
2022/12/10 21:46:42;;;;;;;15.52;7.75;;;17.70;56.30;;;;;;10484686;28;20036;-30
2022/12/10 21:51:44;;;;;;;25.80;16.83;;;17.60;56.40;;;;;;10484714;28;20078;-28
2022/12/10 21:56:46;;;;;;;13.23;7.47;;;17.70;56.40;;;;;;10480505;28;20494;-29
2022/12/10 22:01:50;;;;;;;12.60;6.67;;;17.60;56.30;;;;;;10483169;28;20044;-28
2022/12/10 22:06:52;;;;;;;11.05;5.70;;;17.60;56.40;;;;;;10476709;28;20582;-26
2022/12/10 22:11:54;;;;;;;14.93;8.77;;;17.60;56.40;;;;;;10492106;28;20119;-27
2022/12/10 22:16:58;;;;;;;11.80;7.05;;;17.50;56.40;;;;;;10480174;28;20547;-27
2022/12/10 22:21:59;;;;;;;13.25;5.97;;;17.30;56.90;;;;;;10484749;28;20052;-27
2022/12/10 22:27:01;;;;;;;11.40;6.60;;;17.40;56.70;;;;;;10476050;28;20048;-30
2022/12/10 22:32:05;;;;;;;9.00;5.97;;;17.40;56.50;;;;;;10479257;28;20127;-36
2022/12/10 22:37:07;;;;;;;8.38;5.75;;;17.40;56.50;;;;;;10481475;28;20044;-28
2022/12/10 22:42:09;;;;;;;9.00;5.80;;;17.40;56.60;;;;;;10474129;28;20045;-30
2022/12/10 22:47:12;;;;;;;10.27;6.25;;;17.40;56.60;;;;;;10459634;28;20104;-31
2022/12/10 22:52:14;;;;;;;10.10;6.13;;;17.30;56.60;;;;;;10479226;28;20066;-28
2022/12/10 22:57:16;;;;;;;8.07;6.20;;;17.30;56.50;;;;;;10478887;28;20052;-29
2022/12/10 23:02:19;;;;;;;7.95;5.78;;;17.20;56.60;;;;;;10467757;28;20048;-27
2022/12/10 23:07:21;;;;;;;8.90;5.70;;;17.20;57.10;;;;;;10462917;28;20616;-27
2022/12/10 23:17:44;;;;;;;10.10;5.90;;;16.80;53.90;;;;;;10474272;28;20498;-27
2022/12/10 23:22:46;;;;;;;8.02;5.38;;;17.00;56.60;;;;;;10476226;28;20080;-26
2022/12/10 23:27:48;;;;;;;8.37;5.63;;;17.10;56.60;;;;;;10473945;28;21303;-27
2022/12/10 23:32:52;;;;;;;9.40;5.95;;;17.10;56.30;;;;;;10474825;28;20056;-27
2022/12/10 23:37:54;;;;;;;10.68;6.45;;;17.10;56.30;;;;;;10486213;28;20497;-27
2022/12/10 23:42:56;;;;;;;10.70;6.45;;;16.40;58.10;;;;;;10477991;28;20107;-30
2022/12/10 23:47:59;;;;;;;15.05;9.30;;;15.90;60.00;;;;;;10467306;28;20129;-27
2022/12/10 23:53:02;;;;;;;13.05;9.63;;;16.20;59.00;;;;;;10473514;28;20498;-26
2022/12/10 23:58:04;;;;;;;12.70;7.88;;;15.70;60.50;;;;;;10481476;28;20056;-27
